createdAt,value
2018-08-16T00:00:28.297Z,17.00
2018-08-16T00:02:56.822Z,17.02
2018-08-16T00:05:25.342Z,17.01
2018-08-16T00:07:54.047Z,17.05
2018-08-16T00:10:22.609Z,17.05
2018-08-16T00:12:51.463Z,16.87
2018-08-16T00:15:20.901Z,16.86
2018-08-16T00:17:49.380Z,16.89
2018-08-16T00:20:18.145Z,16.95
2018-08-16T00:22:47.166Z,16.91
2018-08-16T00:25:16.567Z,16.93
2018-08-16T00:27:45.249Z,16.91
2018-08-16T00:30:16.060Z,16.83
2018-08-16T00:32:44.908Z,16.76
2018-08-16T00:35:13.453Z,16.71
2018-08-16T00:37:42.014Z,16.66
2018-08-16T00:40:12.580Z,16.65
2018-08-16T00:42:41.162Z,16.67
2018-08-16T00:45:10.405Z,16.57
2018-08-16T00:47:38.869Z,16.59
2018-08-16T00:50:09.797Z,16.59
2018-08-16T00:52:38.294Z,16.57
2018-08-16T00:55:07.487Z,16.55
2018-08-16T00:57:36.309Z,16.51
2018-08-16T01:00:05.845Z,16.54
2018-08-16T01:02:34.765Z,16.49
2018-08-16T01:05:03.254Z,16.47
2018-08-16T01:07:31.788Z,16.54
2018-08-16T01:10:00.268Z,16.54
2018-08-16T01:12:28.890Z,16.54
2018-08-16T01:14:57.438Z,16.51
2018-08-16T01:17:26.018Z,16.48
2018-08-16T01:19:54.508Z,16.56
2018-08-16T01:22:23.006Z,16.45
2018-08-16T01:24:51.516Z,16.40
2018-08-16T01:27:20.015Z,16.44
2018-08-16T01:29:48.519Z,16.41
2018-08-16T01:32:17.043Z,16.38
2018-08-16T01:34:45.545Z,16.43
2018-08-16T01:37:14.057Z,16.36
2018-08-16T01:39:42.617Z,16.35
2018-08-16T01:42:11.129Z,16.38
2018-08-16T01:44:39.627Z,16.37
2018-08-16T01:47:08.375Z,16.32
2018-08-16T01:49:38.858Z,16.34
2018-08-16T01:52:07.422Z,16.25
2018-08-16T01:54:35.936Z,16.27
2018-08-16T01:57:04.665Z,16.26
2018-08-16T01:59:33.124Z,16.27
2018-08-16T02:02:01.721Z,16.31
2018-08-16T02:04:30.187Z,16.25
2018-08-16T02:06:58.714Z,16.22
2018-08-16T02:09:27.307Z,16.27
2018-08-16T02:11:55.806Z,16.27
2018-08-16T02:14:24.300Z,16.31
2018-08-16T02:16:52.989Z,16.17
2018-08-16T02:19:21.552Z,16.20
2018-08-16T02:21:50.136Z,16.23
2018-08-16T02:24:18.635Z,16.19
2018-08-16T02:26:47.159Z,16.21
2018-08-16T02:29:15.710Z,16.22
2018-08-16T02:31:44.277Z,16.23
2018-08-16T02:34:12.856Z,16.23
2018-08-16T02:36:41.414Z,16.22
2018-08-16T02:39:10.666Z,16.24
2018-08-16T02:41:39.913Z,16.21
2018-08-16T02:44:08.981Z,16.20
2018-08-16T02:46:37.497Z,16.07
2018-08-16T02:49:06.155Z,16.08
2018-08-16T02:51:34.678Z,16.09
2018-08-16T02:54:03.145Z,16.04
2018-08-16T02:56:31.683Z,16.04
2018-08-16T02:59:00.230Z,16.02
2018-08-16T03:01:28.815Z,16.03
2018-08-16T03:03:57.304Z,15.99
2018-08-16T03:06:25.815Z,16.02
2018-08-16T03:08:54.362Z,15.96
2018-08-16T03:11:22.894Z,15.96
2018-08-16T03:13:51.406Z,15.95
2018-08-16T03:16:19.983Z,15.92
2018-08-16T03:18:48.524Z,15.87
2018-08-16T03:21:17.041Z,15.92
2018-08-16T03:23:45.563Z,15.89
2018-08-16T03:26:14.189Z,15.85
2018-08-16T03:28:42.690Z,15.92
2018-08-16T03:31:11.790Z,15.92
2018-08-16T03:33:40.466Z,15.95
2018-08-16T03:36:09.123Z,15.88
2018-08-16T03:38:37.638Z,15.89
2018-08-16T03:41:06.287Z,15.80
2018-08-16T03:43:36.376Z,15.78
2018-08-16T03:46:05.837Z,15.77
2018-08-16T03:48:34.326Z,15.73
2018-08-16T03:51:02.826Z,15.76
2018-08-16T03:53:31.738Z,15.70
2018-08-16T03:56:00.223Z,15.72
2018-08-16T03:58:28.748Z,15.72
2018-08-16T04:00:57.279Z,15.64
2018-08-16T04:03:25.771Z,15.64
2018-08-16T04:05:54.439Z,15.61
2018-08-16T04:08:22.941Z,15.67
2018-08-16T04:10:51.506Z,15.66
2018-08-16T04:13:20.002Z,15.64
2018-08-16T04:15:48.525Z,15.63
2018-08-16T04:18:17.052Z,15.63
2018-08-16T04:20:45.546Z,15.55
2018-08-16T04:23:14.377Z,15.51
2018-08-16T04:25:43.201Z,15.54
2018-08-16T04:28:12.133Z,15.55
2018-08-16T04:30:40.661Z,15.57
2018-08-16T04:33:10.249Z,15.63
2018-08-16T04:35:43.547Z,15.67
2018-08-16T04:38:12.397Z,15.66
2018-08-16T04:40:40.908Z,15.69
2018-08-16T04:43:09.444Z,15.72
2018-08-16T04:45:38.175Z,15.72
2018-08-16T04:48:07.154Z,15.82
2018-08-16T04:50:35.734Z,15.87
2018-08-16T04:53:04.420Z,15.98
2018-08-16T04:55:33.075Z,16.02
2018-08-16T04:58:01.543Z,16.08
2018-08-16T05:00:30.965Z,16.17
2018-08-16T05:02:59.452Z,16.29
2018-08-16T05:05:27.947Z,16.39
2018-08-16T05:07:56.506Z,16.46
2018-08-16T05:10:25.035Z,16.55
2018-08-16T05:12:53.528Z,16.66
2018-08-16T05:15:22.098Z,16.72
2018-08-16T05:17:50.577Z,16.71
2018-08-16T05:20:19.130Z,16.76
2018-08-16T05:22:47.707Z,16.89
2018-08-16T05:25:16.246Z,16.96
2018-08-16T05:27:44.718Z,17.10
2018-08-16T05:30:13.661Z,17.12
2018-08-16T05:32:42.348Z,17.22
2018-08-16T05:35:10.942Z,17.40
2018-08-16T05:37:39.491Z,17.44
2018-08-16T05:40:09.467Z,17.49
2018-08-16T05:42:38.385Z,17.59
2018-08-16T05:45:07.170Z,17.78
2018-08-16T05:47:36.348Z,17.86
2018-08-16T05:50:06.867Z,18.49
2018-08-16T05:52:35.447Z,20.95
2018-08-16T05:55:04.118Z,23.05
2018-08-16T05:57:32.613Z,24.86
2018-08-16T06:00:01.147Z,25.73
2018-08-16T06:02:29.942Z,26.24
2018-08-16T06:04:58.819Z,26.51
2018-08-16T06:07:27.403Z,26.41
2018-08-16T06:09:55.918Z,27.17
2018-08-16T06:12:25.363Z,27.30
2018-08-16T06:14:53.873Z,27.00
2018-08-16T06:17:22.411Z,26.87
2018-08-16T06:19:50.944Z,27.87
2018-08-16T06:22:19.486Z,26.87
2018-08-16T06:24:48.054Z,27.09
2018-08-16T06:27:16.599Z,27.36
2018-08-16T06:29:45.182Z,27.65
2018-08-16T06:32:13.690Z,27.03
2018-08-16T06:34:42.298Z,26.93
2018-08-16T06:37:10.846Z,26.95
2018-08-16T06:39:39.471Z,27.28
2018-08-16T06:42:07.995Z,27.85
2018-08-16T06:44:37.150Z,27.09
2018-08-16T06:47:05.755Z,26.29
2018-08-16T06:49:34.314Z,27.68
2018-08-16T06:52:02.844Z,25.63
2018-08-16T06:54:31.340Z,22.18
2018-08-16T06:56:59.842Z,20.45
2018-08-16T06:59:28.395Z,20.15
2018-08-16T07:01:56.865Z,19.94
2018-08-16T07:04:25.371Z,19.67
2018-08-16T07:06:53.974Z,19.57
2018-08-16T07:09:22.485Z,19.57
2018-08-16T07:11:51.007Z,19.65
2018-08-16T07:14:19.530Z,19.69
2018-08-16T07:16:48.681Z,19.69
2018-08-16T07:19:17.235Z,19.68
2018-08-16T07:21:45.781Z,19.50
2018-08-16T07:24:14.285Z,19.51
2018-08-16T07:26:42.806Z,19.67
2018-08-16T07:29:11.349Z,19.91
2018-08-16T07:31:39.929Z,19.80
2018-08-16T07:34:08.453Z,19.73
2018-08-16T07:36:37.031Z,20.00
2018-08-16T07:39:08.437Z,20.00
2018-08-16T07:41:37.002Z,20.01
2018-08-16T07:44:05.528Z,20.08
2018-08-16T07:46:34.361Z,20.10
2018-08-16T07:49:02.890Z,20.33
2018-08-16T07:51:31.536Z,20.31
2018-08-16T07:54:00.633Z,20.33
2018-08-16T07:56:29.150Z,20.45
2018-08-16T07:58:57.719Z,20.54
2018-08-16T08:01:26.258Z,20.77
2018-08-16T08:03:54.770Z,20.93
2018-08-16T08:06:23.381Z,20.88
2018-08-16T08:08:51.960Z,21.07
2018-08-16T08:11:20.491Z,21.18
2018-08-16T08:13:49.025Z,21.16
2018-08-16T08:16:17.544Z,21.18
2018-08-16T08:18:46.051Z,20.97
2018-08-16T08:21:14.627Z,20.88
2018-08-16T08:23:49.862Z,20.82
2018-08-16T08:26:18.801Z,20.92
2018-08-16T08:28:47.334Z,21.05
2018-08-16T08:31:15.875Z,21.02
2018-08-16T08:33:44.596Z,21.11
2018-08-16T08:36:24.385Z,21.28
2018-08-16T08:38:53.024Z,21.53
2018-08-16T08:41:21.523Z,21.37
2018-08-16T08:44:01.251Z,21.32
2018-08-16T08:46:29.771Z,21.06
2018-08-16T08:48:58.321Z,21.11
2018-08-16T08:51:26.851Z,21.25
2018-08-16T08:54:07.640Z,21.15
2018-08-16T08:56:47.237Z,21.40
2018-08-16T08:59:15.785Z,21.65
2018-08-16T09:01:45.059Z,21.81
2018-08-16T09:04:13.570Z,21.90
2018-08-16T09:06:42.107Z,21.69
2018-08-16T09:09:10.651Z,21.85
2018-08-16T09:11:50.367Z,22.05
2018-08-16T09:14:30.237Z,22.02
2018-08-16T09:16:58.891Z,22.26
2018-08-16T09:19:27.390Z,22.32
2018-08-16T09:21:55.883Z,22.01
2018-08-16T09:24:24.406Z,21.92
2018-08-16T09:26:52.884Z,22.11
2018-08-16T09:30:37.513Z,22.03
2018-08-16T09:33:17.395Z,21.84
2018-08-16T09:35:45.892Z,22.29
2018-08-16T09:38:14.369Z,22.85
2018-08-16T09:40:42.934Z,22.87
2018-08-16T09:43:11.421Z,23.21
2018-08-16T09:46:58.859Z,23.17
2018-08-16T09:49:27.924Z,22.65
2018-08-16T09:51:56.536Z,22.76
2018-08-16T09:54:25.153Z,22.93
2018-08-16T09:56:54.290Z,23.12
2018-08-16T09:59:22.766Z,23.10
2018-08-16T10:01:51.249Z,23.04
2018-08-16T10:04:19.876Z,23.01
2018-08-16T10:06:48.424Z,23.00
2018-08-16T10:09:19.659Z,23.22
2018-08-16T10:11:48.598Z,23.61
2018-08-16T10:14:17.418Z,23.83
2018-08-16T10:16:45.986Z,23.78
2018-08-16T10:19:14.554Z,23.76
2018-08-16T10:21:43.149Z,23.85
2018-08-16T10:24:11.734Z,23.88
2018-08-16T10:26:40.321Z,23.79
2018-08-16T10:29:09.283Z,23.90
2018-08-16T10:31:37.933Z,23.81
2018-08-16T10:34:06.462Z,23.89
2018-08-16T10:36:35.013Z,24.18
2018-08-16T10:39:04.774Z,24.27
2018-08-16T10:41:33.306Z,24.64
2018-08-16T10:44:01.827Z,24.27
2018-08-16T10:46:30.369Z,24.84
2018-08-16T10:48:58.865Z,24.85
2018-08-16T10:51:27.356Z,24.47
2018-08-16T10:53:55.965Z,24.83
2018-08-16T10:56:24.487Z,25.10
2018-08-16T10:58:53.034Z,24.60
2018-08-16T11:01:21.604Z,24.65
2018-08-16T11:03:50.187Z,24.85
2018-08-16T11:06:18.701Z,25.38
2018-08-16T11:08:47.238Z,25.64
2018-08-16T11:11:15.901Z,25.15
2018-08-16T11:13:44.437Z,25.02
2018-08-16T11:16:12.998Z,25.20
2018-08-16T11:18:41.662Z,25.93
2018-08-16T11:21:10.146Z,25.73
2018-08-16T11:23:38.682Z,26.11
2018-08-16T11:26:07.215Z,26.21
2018-08-16T11:28:35.719Z,26.13
2018-08-16T11:31:04.596Z,25.99
2018-08-16T11:33:33.155Z,25.36
2018-08-16T11:36:01.643Z,25.32
2018-08-16T11:38:30.141Z,25.63
2018-08-16T11:40:58.670Z,25.65
2018-08-16T11:43:27.211Z,24.91
2018-08-16T11:45:55.934Z,25.29
2018-08-16T11:48:24.461Z,25.59
2018-08-16T11:50:52.977Z,25.87
2018-08-16T11:53:21.473Z,25.72
2018-08-16T11:55:49.941Z,25.52
2018-08-16T11:58:18.735Z,25.40
2018-08-16T12:00:47.266Z,25.74
2018-08-16T12:03:15.791Z,25.76
2018-08-16T12:05:44.322Z,25.86
2018-08-16T12:08:12.903Z,26.05
2018-08-16T12:10:41.527Z,26.69
2018-08-16T12:13:10.027Z,26.24
2018-08-16T12:15:38.566Z,26.01
2018-08-16T12:18:07.102Z,26.36
2018-08-16T12:20:35.609Z,26.14
2018-08-16T12:23:04.102Z,26.05
2018-08-16T12:25:32.845Z,25.99
2018-08-16T12:28:01.396Z,26.27
2018-08-16T12:30:29.923Z,26.80
2018-08-16T12:32:58.494Z,26.66
2018-08-16T12:35:26.971Z,26.79
2018-08-16T12:37:55.555Z,26.28
2018-08-16T12:40:24.059Z,26.53
2018-08-16T12:42:52.673Z,26.43
2018-08-16T12:45:21.242Z,26.15
2018-08-16T12:47:49.795Z,26.47
2018-08-16T12:50:18.397Z,26.78
2018-08-16T12:52:47.110Z,26.77
2018-08-16T12:55:15.719Z,26.65
2018-08-16T12:57:44.370Z,26.67
2018-08-16T13:00:16.633Z,26.57
2018-08-16T13:02:45.759Z,26.04
2018-08-16T13:05:14.370Z,26.17
2018-08-16T13:07:42.918Z,26.85
2018-08-16T13:10:12.423Z,26.94
2018-08-16T13:12:41.027Z,27.04
2018-08-16T13:15:10.332Z,26.84
2018-08-16T13:17:39.549Z,26.38
2018-08-16T13:20:08.677Z,26.50
2018-08-16T13:22:37.190Z,26.37
2018-08-16T13:25:06.215Z,26.27
2018-08-16T13:27:34.852Z,26.14
2018-08-16T13:30:03.598Z,26.23
2018-08-16T13:32:32.173Z,26.05
2018-08-16T13:35:00.672Z,26.40
2018-08-16T13:37:29.170Z,26.96
2018-08-16T13:39:57.708Z,26.29
2018-08-16T13:42:26.285Z,26.46
2018-08-16T13:44:54.736Z,26.25
2018-08-16T13:47:23.306Z,26.08
2018-08-16T13:49:51.834Z,26.45
2018-08-16T13:52:20.355Z,26.86
2018-08-16T13:54:48.894Z,26.59
2018-08-16T13:57:17.745Z,25.88
2018-08-16T13:59:46.265Z,25.89
2018-08-16T14:02:14.807Z,26.13
2018-08-16T14:04:43.364Z,26.45
2018-08-16T14:07:11.888Z,26.66
2018-08-16T14:09:40.388Z,26.96
2018-08-16T14:12:08.946Z,25.88
2018-08-16T14:14:37.443Z,25.74
2018-08-16T14:17:06.298Z,26.07
2018-08-16T14:19:34.997Z,25.93
2018-08-16T14:22:03.518Z,25.38
2018-08-16T14:24:32.062Z,25.90
2018-08-16T14:27:00.625Z,25.93
2018-08-16T14:29:29.181Z,25.87
2018-08-16T14:31:57.779Z,25.80
2018-08-16T14:34:26.264Z,25.70
2018-08-16T14:36:54.842Z,25.60
2018-08-16T14:39:23.376Z,26.39
2018-08-16T14:41:51.834Z,25.76
2018-08-16T14:44:21.337Z,25.17
2018-08-16T14:46:49.850Z,25.26
2018-08-16T14:49:18.491Z,25.54
2018-08-16T14:51:47.057Z,25.50
2018-08-16T14:54:15.549Z,25.54
2018-08-16T14:56:44.292Z,26.19
2018-08-16T14:59:12.870Z,26.27
2018-08-16T15:01:41.424Z,26.30
2018-08-16T15:04:10.061Z,26.08
2018-08-16T15:06:38.598Z,25.96
2018-08-16T15:09:09.189Z,25.73
2018-08-16T15:11:37.843Z,25.56
2018-08-16T15:14:06.362Z,25.81
2018-08-16T15:16:34.876Z,25.61
2018-08-16T15:19:03.422Z,25.73
2018-08-16T15:21:31.932Z,25.93
2018-08-16T15:24:00.535Z,25.81
2018-08-16T15:26:29.259Z,25.81
2018-08-16T15:28:58.271Z,25.37
2018-08-16T15:31:27.751Z,25.62
2018-08-16T15:33:56.641Z,25.79
2018-08-16T15:36:25.742Z,25.82
2018-08-16T15:38:55.045Z,25.25
2018-08-16T15:41:24.250Z,25.11
2018-08-16T15:43:53.095Z,24.79
2018-08-16T15:46:22.015Z,24.98
2018-08-16T15:48:51.054Z,25.16
2018-08-16T15:51:20.127Z,25.10
2018-08-16T15:53:49.187Z,25.45
2018-08-16T15:56:18.566Z,25.10
2018-08-16T15:58:47.670Z,25.47
2018-08-16T16:01:16.741Z,25.81
2018-08-16T16:03:45.845Z,25.48
2018-08-16T16:06:14.445Z,25.39
2018-08-16T16:08:43.089Z,25.11
2018-08-16T16:11:12.152Z,24.96
2018-08-16T16:13:41.087Z,24.34
2018-08-16T16:16:10.180Z,24.35
2018-08-16T16:18:38.677Z,24.70
2018-08-16T16:21:07.801Z,24.34
2018-08-16T16:23:36.963Z,24.44
2018-08-16T16:26:06.071Z,24.67
2018-08-16T16:28:34.659Z,24.43
2018-08-16T16:31:03.791Z,24.45
2018-08-16T16:33:33.204Z,24.36
2018-08-16T16:36:02.214Z,24.53
2018-08-16T16:38:31.007Z,24.03
2018-08-16T16:40:59.520Z,24.44
2018-08-16T16:43:28.591Z,24.43
2018-08-16T16:45:57.541Z,24.51
2018-08-16T16:48:26.788Z,24.74
2018-08-16T16:50:56.134Z,24.70
2018-08-16T16:53:24.703Z,24.42
2018-08-16T16:55:53.258Z,24.26
2018-08-16T16:58:21.837Z,24.01
2018-08-16T17:00:50.379Z,23.91
2018-08-16T17:20:35.507Z,24.04
2018-08-16T17:23:04.509Z,24.19
2018-08-16T17:25:33.445Z,24.07
2018-08-16T17:28:02.529Z,24.01
2018-08-16T17:30:31.655Z,23.99
2018-08-16T17:33:00.613Z,23.68
2018-08-16T17:52:44.256Z,23.15
2018-08-16T17:55:12.927Z,22.96
2018-08-16T17:57:41.530Z,22.75
2018-08-16T18:00:11.079Z,22.62
2018-08-16T18:02:39.599Z,22.52
2018-08-16T18:05:08.137Z,22.53
2018-08-16T18:24:52.631Z,22.16
2018-08-16T18:27:21.142Z,22.13
2018-08-16T18:47:06.153Z,20.99
2018-08-16T18:49:34.682Z,20.88
2018-08-16T18:52:03.536Z,20.71
2018-08-16T18:54:32.357Z,20.57
2018-08-16T18:57:01.015Z,20.46
2018-08-16T18:59:29.573Z,20.39
2018-08-16T19:01:59.214Z,20.33
2018-08-16T19:04:27.746Z,20.25
2018-08-16T19:06:56.402Z,20.13
2018-08-16T19:09:24.906Z,20.04
2018-08-16T19:11:54.414Z,19.98
2018-08-16T19:14:23.034Z,19.87
2018-08-16T19:16:51.721Z,19.74
2018-08-16T19:19:20.193Z,19.49
2018-08-16T19:21:48.721Z,19.37
2018-08-16T19:24:17.439Z,19.22
2018-08-16T19:26:45.950Z,19.08
2018-08-16T19:29:14.728Z,18.91
2018-08-16T19:31:43.407Z,18.80
2018-08-16T19:34:11.943Z,18.78
2018-08-16T19:36:40.495Z,18.69
2018-08-16T19:39:12.049Z,18.52
2018-08-16T19:41:40.904Z,18.40
2018-08-16T19:44:10.258Z,18.29
2018-08-16T19:46:38.814Z,18.20
2018-08-16T19:49:07.798Z,18.18
2018-08-16T19:51:36.293Z,18.11
2018-08-16T19:54:04.877Z,18.03
2018-08-16T19:56:33.391Z,17.99
2018-08-16T19:59:01.935Z,17.89
2018-08-16T20:01:30.538Z,17.87
2018-08-16T20:03:59.040Z,17.81
2018-08-16T20:06:27.690Z,17.76
2018-08-16T20:08:56.177Z,17.77
2018-08-16T20:11:24.706Z,17.68
2018-08-16T20:13:53.227Z,17.65
2018-08-16T20:16:21.794Z,17.60
2018-08-16T20:18:50.266Z,17.57
2018-08-16T20:21:18.803Z,17.54
2018-08-16T20:23:47.303Z,17.53
2018-08-16T20:26:15.790Z,17.42
2018-08-16T20:28:44.338Z,17.46
2018-08-16T20:31:13.102Z,17.37
2018-08-16T20:33:41.611Z,17.40
2018-08-16T20:36:10.189Z,17.31
2018-08-16T20:38:38.671Z,17.30
2018-08-16T20:41:07.241Z,17.34
2018-08-16T20:43:35.863Z,17.45
2018-08-16T20:46:04.619Z,17.44
2018-08-16T20:48:34.864Z,17.35
2018-08-16T20:51:03.377Z,17.33
2018-08-16T20:53:31.889Z,17.31
2018-08-16T20:56:00.437Z,17.36
2018-08-16T20:58:29.941Z,17.30
2018-08-16T21:00:58.504Z,17.29
2018-08-16T21:03:26.956Z,17.27
2018-08-16T21:05:55.475Z,17.37
2018-08-16T21:08:24.026Z,17.23
2018-08-16T21:10:52.522Z,17.23
2018-08-16T21:13:21.039Z,17.27
2018-08-16T21:15:49.638Z,17.19
2018-08-16T21:18:18.204Z,17.14
2018-08-16T21:20:46.779Z,17.03
2018-08-16T21:23:15.318Z,17.05
2018-08-16T21:25:43.801Z,17.04
2018-08-16T21:28:12.899Z,16.95
2018-08-16T21:30:41.488Z,16.96
2018-08-16T21:33:11.702Z,16.83
2018-08-16T21:35:40.227Z,16.81
2018-08-16T21:38:08.720Z,16.79
2018-08-16T21:40:37.263Z,16.80
2018-08-16T21:43:05.982Z,16.80
2018-08-16T21:45:34.598Z,16.81
2018-08-16T21:48:03.168Z,16.84
2018-08-16T21:50:31.838Z,16.79
2018-08-16T21:53:00.318Z,16.73
2018-08-16T21:55:28.825Z,16.83
2018-08-16T21:57:57.393Z,16.73
2018-08-16T22:00:47.649Z,16.65
2018-08-16T22:03:18.007Z,16.64
2018-08-16T22:05:55.959Z,16.66
2018-08-16T22:08:25.875Z,16.73
2018-08-16T22:10:54.325Z,16.66
2018-08-16T22:13:22.842Z,16.47
2018-08-16T22:15:51.343Z,16.36
2018-08-16T22:18:19.945Z,16.20
2018-08-16T22:20:48.548Z,16.23
2018-08-16T22:23:17.043Z,16.23
2018-08-16T22:25:45.582Z,16.17
2018-08-16T22:28:14.553Z,16.18
2018-08-16T22:30:43.140Z,16.10
2018-08-16T22:33:11.698Z,16.13
2018-08-16T22:35:40.271Z,16.15
2018-08-16T22:38:08.773Z,16.21
2018-08-16T22:40:37.229Z,16.21
2018-08-16T22:43:06.277Z,16.25
2018-08-16T22:45:34.793Z,16.28
2018-08-16T22:48:03.297Z,16.22
2018-08-16T22:50:32.240Z,16.23
2018-08-16T22:53:00.752Z,16.32
2018-08-16T22:55:29.230Z,16.17
2018-08-16T22:57:57.864Z,16.20
2018-08-16T23:00:26.354Z,16.24
2018-08-16T23:02:55.387Z,16.31
2018-08-16T23:05:23.904Z,16.34
2018-08-16T23:07:52.733Z,16.19
2018-08-16T23:10:21.800Z,16.16
2018-08-16T23:12:50.399Z,16.14
2018-08-16T23:15:18.895Z,16.19
2018-08-16T23:17:47.829Z,16.17
2018-08-16T23:20:16.960Z,16.19
2018-08-16T23:22:45.485Z,16.25
2018-08-16T23:25:14.561Z,16.20
2018-08-16T23:27:43.302Z,16.26
2018-08-16T23:30:13.985Z,16.21
2018-08-16T23:32:42.815Z,16.18
2018-08-16T23:35:11.686Z,16.27
2018-08-16T23:37:40.241Z,16.33
2018-08-16T23:40:11.063Z,16.33
2018-08-16T23:42:40.232Z,16.22
2018-08-16T23:45:09.920Z,16.23
2018-08-16T23:47:38.491Z,16.24
2018-08-16T23:50:09.980Z,16.19
2018-08-16T23:52:38.594Z,16.12
2018-08-16T23:55:08.490Z,16.19
2018-08-16T23:57:37.061Z,15.71
